sensor_id;sensor_type;location;lat;lon;timestamp;temperature;humidity
7341;DHT22;6870;50.944;6.932;2023-08-12T00:01:08;25.40;34.10
7341;DHT22;6870;50.944;6.932;2023-08-12T00:03:36;25.10;34.10
7341;DHT22;6870;50.944;6.932;2023-08-12T00:06:04;25.20;34.00
7341;DHT22;6870;50.944;6.932;2023-08-12T00:08:32;25.20;34.10
7341;DHT22;6870;50.944;6.932;2023-08-12T00:11:00;25.30;34.20
7341;DHT22;6870;50.944;6.932;2023-08-12T00:13:28;25.10;34.20
7341;DHT22;6870;50.944;6.932;2023-08-12T00:15:56;25.10;34.20
7341;DHT22;6870;50.944;6.932;2023-08-12T00:18:26;24.90;34.10
7341;DHT22;6870;50.944;6.932;2023-08-12T00:20:55;25.10;34.50
7341;DHT22;6870;50.944;6.932;2023-08-12T00:23:24;24.90;34.30
7341;DHT22;6870;50.944;6.932;2023-08-12T00:25:52;24.90;34.10
7341;DHT22;6870;50.944;6.932;2023-08-12T00:28:20;25.00;34.30
7341;DHT22;6870;50.944;6.932;2023-08-12T00:30:48;24.90;34.10
7341;DHT22;6870;50.944;6.932;2023-08-12T00:33:16;24.80;34.10
7341;DHT22;6870;50.944;6.932;2023-08-12T00:35:46;25.00;34.30
7341;DHT22;6870;50.944;6.932;2023-08-12T00:38:14;25.30;34.70
7341;DHT22;6870;50.944;6.932;2023-08-12T00:40:42;25.00;34.50
7341;DHT22;6870;50.944;6.932;2023-08-12T00:43:10;24.90;34.40
7341;DHT22;6870;50.944;6.932;2023-08-12T00:45:39;24.90;34.50
7341;DHT22;6870;50.944;6.932;2023-08-12T00:48:08;25.10;34.80
7341;DHT22;6870;50.944;6.932;2023-08-12T00:50:40;25.10;34.70
7341;DHT22;6870;50.944;6.932;2023-08-12T00:53:11;24.90;34.50
7341;DHT22;6870;50.944;6.932;2023-08-12T00:55:41;25.00;34.90
7341;DHT22;6870;50.944;6.932;2023-08-12T00:58:09;25.10;34.70
7341;DHT22;6870;50.944;6.932;2023-08-12T01:00:37;25.00;35.00
7341;DHT22;6870;50.944;6.932;2023-08-12T01:03:06;24.60;34.50
7341;DHT22;6870;50.944;6.932;2023-08-12T01:05:34;25.10;34.90
7341;DHT22;6870;50.944;6.932;2023-08-12T01:08:06;25.10;35.10
7341;DHT22;6870;50.944;6.932;2023-08-12T01:10:37;24.80;35.00
7341;DHT22;6870;50.944;6.932;2023-08-12T01:13:17;24.70;35.00
7341;DHT22;6870;50.944;6.932;2023-08-12T01:15:50;25.10;35.30
7341;DHT22;6870;50.944;6.932;2023-08-12T01:18:20;25.10;35.20
7341;DHT22;6870;50.944;6.932;2023-08-12T01:20:50;25.00;35.30
7341;DHT22;6870;50.944;6.932;2023-08-12T01:23:20;24.90;35.30
7341;DHT22;6870;50.944;6.932;2023-08-12T01:25:48;24.80;35.40
7341;DHT22;6870;50.944;6.932;2023-08-12T01:28:16;24.90;35.50
7341;DHT22;6870;50.944;6.932;2023-08-12T01:31:01;24.80;35.40
7341;DHT22;6870;50.944;6.932;2023-08-12T01:33:36;24.80;35.50
7341;DHT22;6870;50.944;6.932;2023-08-12T01:36:09;25.10;35.70
7341;DHT22;6870;50.944;6.932;2023-08-12T01:38:43;25.00;35.70
7341;DHT22;6870;50.944;6.932;2023-08-12T01:41:12;24.80;35.50
7341;DHT22;6870;50.944;6.932;2023-08-12T01:43:41;24.60;35.50
7341;DHT22;6870;50.944;6.932;2023-08-12T01:46:10;24.70;35.60
7341;DHT22;6870;50.944;6.932;2023-08-12T01:48:38;24.50;35.50
7341;DHT22;6870;50.944;6.932;2023-08-12T01:51:06;24.50;35.60
7341;DHT22;6870;50.944;6.932;2023-08-12T01:53:34;24.90;36.20
7341;DHT22;6870;50.944;6.932;2023-08-12T01:56:04;24.80;35.90
7341;DHT22;6870;50.944;6.932;2023-08-12T01:58:32;24.60;36.10
7341;DHT22;6870;50.944;6.932;2023-08-12T02:01:00;24.90;36.50
7341;DHT22;6870;50.944;6.932;2023-08-12T02:03:28;24.70;36.20
7341;DHT22;6870;50.944;6.932;2023-08-12T02:05:56;24.80;36.80
7341;DHT22;6870;50.944;6.932;2023-08-12T02:08:24;24.80;36.20
7341;DHT22;6870;50.944;6.932;2023-08-12T02:10:52;24.70;36.00
7341;DHT22;6870;50.944;6.932;2023-08-12T02:13:21;24.80;36.10
7341;DHT22;6870;50.944;6.932;2023-08-12T02:15:49;24.70;36.30
7341;DHT22;6870;50.944;6.932;2023-08-12T02:18:17;24.60;36.20
7341;DHT22;6870;50.944;6.932;2023-08-12T02:20:46;24.60;36.00
7341;DHT22;6870;50.944;6.932;2023-08-12T02:23:15;24.80;36.30
7341;DHT22;6870;50.944;6.932;2023-08-12T02:25:43;24.70;36.20
7341;DHT22;6870;50.944;6.932;2023-08-12T02:28:11;24.80;36.40
7341;DHT22;6870;50.944;6.932;2023-08-12T02:30:41;24.70;36.30
7341;DHT22;6870;50.944;6.932;2023-08-12T02:33:09;24.50;36.10
7341;DHT22;6870;50.944;6.932;2023-08-12T02:35:38;24.80;36.40
7341;DHT22;6870;50.944;6.932;2023-08-12T02:38:06;24.70;36.30
7341;DHT22;6870;50.944;6.932;2023-08-12T02:40:34;24.50;36.10
7341;DHT22;6870;50.944;6.932;2023-08-12T02:43:02;24.90;36.50
7341;DHT22;6870;50.944;6.932;2023-08-12T02:45:30;24.60;36.30
7341;DHT22;6870;50.944;6.932;2023-08-12T02:48:00;24.50;36.10
7341;DHT22;6870;50.944;6.932;2023-08-12T02:50:28;24.70;36.30
7341;DHT22;6870;50.944;6.932;2023-08-12T02:52:56;24.70;36.30
7341;DHT22;6870;50.944;6.932;2023-08-12T02:55:24;24.40;36.10
7341;DHT22;6870;50.944;6.932;2023-08-12T02:57:52;24.30;36.00
7341;DHT22;6870;50.944;6.932;2023-08-12T03:00:20;24.80;36.50
7341;DHT22;6870;50.944;6.932;2023-08-12T03:02:48;24.80;36.50
7341;DHT22;6870;50.944;6.932;2023-08-12T03:05:18;24.80;36.40
7341;DHT22;6870;50.944;6.932;2023-08-12T03:07:46;24.90;36.60
7341;DHT22;6870;50.944;6.932;2023-08-12T03:10:15;24.70;36.50
7341;DHT22;6870;50.944;6.932;2023-08-12T03:12:43;24.70;36.40
7341;DHT22;6870;50.944;6.932;2023-08-12T03:15:11;24.60;36.40
7341;DHT22;6870;50.944;6.932;2023-08-12T03:17:39;24.80;36.50
7341;DHT22;6870;50.944;6.932;2023-08-12T03:20:08;24.60;36.30
7341;DHT22;6870;50.944;6.932;2023-08-12T03:22:38;24.50;36.40
7341;DHT22;6870;50.944;6.932;2023-08-12T03:25:07;24.60;36.30
7341;DHT22;6870;50.944;6.932;2023-08-12T03:27:35;24.70;36.50
7341;DHT22;6870;50.944;6.932;2023-08-12T03:30:04;24.80;36.40
7341;DHT22;6870;50.944;6.932;2023-08-12T03:32:33;24.40;36.10
7341;DHT22;6870;50.944;6.932;2023-08-12T03:35:01;24.40;36.00
7341;DHT22;6870;50.944;6.932;2023-08-12T03:37:30;24.50;36.20
7341;DHT22;6870;50.944;6.932;2023-08-12T03:40:00;24.40;36.10
7341;DHT22;6870;50.944;6.932;2023-08-12T03:42:28;24.70;36.50
7341;DHT22;6870;50.944;6.932;2023-08-12T03:44:56;24.70;36.60
7341;DHT22;6870;50.944;6.932;2023-08-12T03:47:24;24.60;36.40
7341;DHT22;6870;50.944;6.932;2023-08-12T03:49:52;24.70;36.40
7341;DHT22;6870;50.944;6.932;2023-08-12T03:52:20;24.60;36.50
7341;DHT22;6870;50.944;6.932;2023-08-12T03:54:48;24.50;36.50
7341;DHT22;6870;50.944;6.932;2023-08-12T03:57:17;24.50;36.20
7341;DHT22;6870;50.944;6.932;2023-08-12T03:59:45;24.40;36.40
7341;DHT22;6870;50.944;6.932;2023-08-12T04:02:13;24.50;36.30
7341;DHT22;6870;50.944;6.932;2023-08-12T04:04:41;24.80;36.60
7341;DHT22;6870;50.944;6.932;2023-08-12T04:07:10;24.50;36.50
7341;DHT22;6870;50.944;6.932;2023-08-12T04:09:39;24.50;36.70
7341;DHT22;6870;50.944;6.932;2023-08-12T04:12:07;24.50;36.20
7341;DHT22;6870;50.944;6.932;2023-08-12T04:14:36;24.50;36.20
7341;DHT22;6870;50.944;6.932;2023-08-12T04:17:04;24.30;36.10
7341;DHT22;6870;50.944;6.932;2023-08-12T04:19:32;24.70;36.70
7341;DHT22;6870;50.944;6.932;2023-08-12T04:22:00;24.70;37.00
7341;DHT22;6870;50.944;6.932;2023-08-12T04:24:28;24.80;36.60
7341;DHT22;6870;50.944;6.932;2023-08-12T04:26:56;24.80;36.50
7341;DHT22;6870;50.944;6.932;2023-08-12T04:29:24;24.60;36.30
7341;DHT22;6870;50.944;6.932;2023-08-12T04:31:53;24.40;36.10
7341;DHT22;6870;50.944;6.932;2023-08-12T04:34:21;24.60;36.80
7341;DHT22;6870;50.944;6.932;2023-08-12T04:36:49;24.70;36.30
7341;DHT22;6870;50.944;6.932;2023-08-12T04:39:17;24.60;36.80
7341;DHT22;6870;50.944;6.932;2023-08-12T04:41:45;24.70;36.40
7341;DHT22;6870;50.944;6.932;2023-08-12T04:44:13;24.80;37.30
7341;DHT22;6870;50.944;6.932;2023-08-12T04:46:41;24.40;36.00
7341;DHT22;6870;50.944;6.932;2023-08-12T04:49:11;24.50;36.20
7341;DHT22;6870;50.944;6.932;2023-08-12T04:51:39;24.40;36.10
7341;DHT22;6870;50.944;6.932;2023-08-12T04:54:07;24.50;36.50
7341;DHT22;6870;50.944;6.932;2023-08-12T04:56:35;24.50;36.50
7341;DHT22;6870;50.944;6.932;2023-08-12T04:59:03;24.60;37.30
7341;DHT22;6870;50.944;6.932;2023-08-12T05:01:31;24.60;37.30
7341;DHT22;6870;50.944;6.932;2023-08-12T05:03:59;24.60;36.80
7341;DHT22;6870;50.944;6.932;2023-08-12T05:06:29;24.90;37.00
7341;DHT22;6870;50.944;6.932;2023-08-12T05:08:57;24.70;36.80
7341;DHT22;6870;50.944;6.932;2023-08-12T05:11:25;24.70;36.90
7341;DHT22;6870;50.944;6.932;2023-08-12T05:13:53;24.50;36.50
7341;DHT22;6870;50.944;6.932;2023-08-12T05:16:20;24.60;36.30
7341;DHT22;6870;50.944;6.932;2023-08-12T05:18:49;24.70;36.60
7341;DHT22;6870;50.944;6.932;2023-08-12T05:21:17;24.60;36.70
7341;DHT22;6870;50.944;6.932;2023-08-12T05:23:46;24.80;36.80
7341;DHT22;6870;50.944;6.932;2023-08-12T05:26:14;24.80;36.70
7341;DHT22;6870;50.944;6.932;2023-08-12T05:28:42;24.70;36.40
7341;DHT22;6870;50.944;6.932;2023-08-12T05:31:10;24.60;36.70
7341;DHT22;6870;50.944;6.932;2023-08-12T05:33:38;24.60;36.70
7341;DHT22;6870;50.944;6.932;2023-08-12T05:36:06;24.80;36.50
7341;DHT22;6870;50.944;6.932;2023-08-12T05:38:35;24.80;36.80
7341;DHT22;6870;50.944;6.932;2023-08-12T05:41:04;24.70;36.60
7341;DHT22;6870;50.944;6.932;2023-08-12T05:43:34;24.80;36.50
7341;DHT22;6870;50.944;6.932;2023-08-12T05:46:02;24.70;36.60
7341;DHT22;6870;50.944;6.932;2023-08-12T05:48:30;24.50;36.10
7341;DHT22;6870;50.944;6.932;2023-08-12T05:50:58;24.70;36.30
7341;DHT22;6870;50.944;6.932;2023-08-12T05:53:26;24.70;36.50
7341;DHT22;6870;50.944;6.932;2023-08-12T05:55:54;24.60;36.40
7341;DHT22;6870;50.944;6.932;2023-08-12T05:58:23;24.90;36.90
7341;DHT22;6870;50.944;6.932;2023-08-12T06:00:51;24.50;36.70
7341;DHT22;6870;50.944;6.932;2023-08-12T06:03:19;24.70;36.50
7341;DHT22;6870;50.944;6.932;2023-08-12T06:05:47;24.80;37.20
7341;DHT22;6870;50.944;6.932;2023-08-12T06:08:15;24.50;36.90
7341;DHT22;6870;50.944;6.932;2023-08-12T06:10:44;24.40;36.30
7341;DHT22;6870;50.944;6.932;2023-08-12T06:13:12;24.70;36.80
7341;DHT22;6870;50.944;6.932;2023-08-12T06:15:41;24.60;37.40
7341;DHT22;6870;50.944;6.932;2023-08-12T06:18:09;24.70;37.50
7341;DHT22;6870;50.944;6.932;2023-08-12T06:20:37;24.30;36.10
7341;DHT22;6870;50.944;6.932;2023-08-12T06:23:05;24.30;36.40
7341;DHT22;6870;50.944;6.932;2023-08-12T06:25:33;24.30;36.00
7341;DHT22;6870;50.944;6.932;2023-08-12T06:28:03;24.50;36.20
7341;DHT22;6870;50.944;6.932;2023-08-12T06:30:31;24.30;37.40
7341;DHT22;6870;50.944;6.932;2023-08-12T06:33:01;24.50;36.50
7341;DHT22;6870;50.944;6.932;2023-08-12T06:35:29;24.50;36.40
7341;DHT22;6870;50.944;6.932;2023-08-12T06:37:57;24.70;36.40
7341;DHT22;6870;50.944;6.932;2023-08-12T06:40:25;24.60;36.80
7341;DHT22;6870;50.944;6.932;2023-08-12T06:42:54;24.50;37.60
7341;DHT22;6870;50.944;6.932;2023-08-12T06:45:22;24.30;36.00
7341;DHT22;6870;50.944;6.932;2023-08-12T06:47:50;24.50;36.60
7341;DHT22;6870;50.944;6.932;2023-08-12T06:50:19;24.30;36.30
7341;DHT22;6870;50.944;6.932;2023-08-12T06:52:47;24.80;36.70
7341;DHT22;6870;50.944;6.932;2023-08-12T06:55:15;24.60;37.40
7341;DHT22;6870;50.944;6.932;2023-08-12T06:57:44;24.80;37.30
7341;DHT22;6870;50.944;6.932;2023-08-12T07:00:12;24.70;36.90
7341;DHT22;6870;50.944;6.932;2023-08-12T07:02:40;24.70;37.50
7341;DHT22;6870;50.944;6.932;2023-08-12T07:05:09;24.80;36.50
7341;DHT22;6870;50.944;6.932;2023-08-12T07:07:39;24.80;36.80
7341;DHT22;6870;50.944;6.932;2023-08-12T07:10:07;24.80;37.20
7341;DHT22;6870;50.944;6.932;2023-08-12T07:12:36;24.90;36.60
7341;DHT22;6870;50.944;6.932;2023-08-12T07:15:04;24.60;36.40
7341;DHT22;6870;50.944;6.932;2023-08-12T07:17:33;24.70;37.30
7341;DHT22;6870;50.944;6.932;2023-08-12T07:20:01;24.70;36.50
7341;DHT22;6870;50.944;6.932;2023-08-12T07:22:31;24.80;36.40
7341;DHT22;6870;50.944;6.932;2023-08-12T07:25:00;25.10;36.60
7341;DHT22;6870;50.944;6.932;2023-08-12T07:27:28;24.80;36.80
7341;DHT22;6870;50.944;6.932;2023-08-12T07:29:56;25.00;36.10
7341;DHT22;6870;50.944;6.932;2023-08-12T07:32:24;25.10;36.30
7341;DHT22;6870;50.944;6.932;2023-08-12T07:34:52;25.00;36.10
7341;DHT22;6870;50.944;6.932;2023-08-12T07:37:20;24.90;36.10
7341;DHT22;6870;50.944;6.932;2023-08-12T07:39:48;24.80;35.80
7341;DHT22;6870;50.944;6.932;2023-08-12T07:42:18;24.90;35.90
7341;DHT22;6870;50.944;6.932;2023-08-12T07:44:46;25.00;35.90
7341;DHT22;6870;50.944;6.932;2023-08-12T07:47:14;24.80;35.80
7341;DHT22;6870;50.944;6.932;2023-08-12T07:49:43;24.90;35.80
7341;DHT22;6870;50.944;6.932;2023-08-12T07:52:11;25.10;36.00
7341;DHT22;6870;50.944;6.932;2023-08-12T07:54:39;24.80;35.70
7341;DHT22;6870;50.944;6.932;2023-08-12T07:57:07;24.80;35.50
7341;DHT22;6870;50.944;6.932;2023-08-12T07:59:36;24.80;35.60
7341;DHT22;6870;50.944;6.932;2023-08-12T08:02:05;24.80;35.50
7341;DHT22;6870;50.944;6.932;2023-08-12T08:04:33;25.30;35.90
7341;DHT22;6870;50.944;6.932;2023-08-12T08:07:01;25.20;35.90
7341;DHT22;6870;50.944;6.932;2023-08-12T08:09:29;24.90;35.60
7341;DHT22;6870;50.944;6.932;2023-08-12T08:11:57;25.00;35.80
7341;DHT22;6870;50.944;6.932;2023-08-12T08:14:27;24.90;35.60
7341;DHT22;6870;50.944;6.932;2023-08-12T08:16:56;24.80;35.50
7341;DHT22;6870;50.944;6.932;2023-08-12T08:19:25;24.90;35.60
7341;DHT22;6870;50.944;6.932;2023-08-12T08:21:56;25.00;35.60
7341;DHT22;6870;50.944;6.932;2023-08-12T08:24:25;25.10;35.70
7341;DHT22;6870;50.944;6.932;2023-08-12T08:26:53;25.00;35.80
7341;DHT22;6870;50.944;6.932;2023-08-12T08:29:21;25.40;36.00
7341;DHT22;6870;50.944;6.932;2023-08-12T08:31:49;25.30;36.00
7341;DHT22;6870;50.944;6.932;2023-08-12T08:34:18;25.00;35.70
7341;DHT22;6870;50.944;6.932;2023-08-12T08:36:46;24.70;35.50
7341;DHT22;6870;50.944;6.932;2023-08-12T08:39:14;24.80;35.70
7341;DHT22;6870;50.944;6.932;2023-08-12T08:41:44;25.30;36.00
7341;DHT22;6870;50.944;6.932;2023-08-12T08:44:15;25.00;35.90
7341;DHT22;6870;50.944;6.932;2023-08-12T08:46:45;24.90;35.70
7341;DHT22;6870;50.944;6.932;2023-08-12T08:49:15;25.10;36.00
7341;DHT22;6870;50.944;6.932;2023-08-12T08:51:46;24.90;36.60
7341;DHT22;6870;50.944;6.932;2023-08-12T08:54:15;25.30;36.10
7341;DHT22;6870;50.944;6.932;2023-08-12T08:56:43;25.20;36.00
7341;DHT22;6870;50.944;6.932;2023-08-12T08:59:23;24.90;35.80
7341;DHT22;6870;50.944;6.932;2023-08-12T09:01:51;24.90;35.80
7341;DHT22;6870;50.944;6.932;2023-08-12T09:04:25;25.10;35.90
7341;DHT22;6870;50.944;6.932;2023-08-12T09:06:56;24.80;35.70
7341;DHT22;6870;50.944;6.932;2023-08-12T09:09:25;24.90;35.70
7341;DHT22;6870;50.944;6.932;2023-08-12T09:11:55;25.00;35.90
7341;DHT22;6870;50.944;6.932;2023-08-12T09:14:23;24.90;35.80
7341;DHT22;6870;50.944;6.932;2023-08-12T09:16:51;25.00;35.80
7341;DHT22;6870;50.944;6.932;2023-08-12T09:19:22;25.00;35.70
7341;DHT22;6870;50.944;6.932;2023-08-12T09:21:51;24.90;35.90
7341;DHT22;6870;50.944;6.932;2023-08-12T09:24:25;25.10;36.00
7341;DHT22;6870;50.944;6.932;2023-08-12T09:26:54;24.80;35.70
7341;DHT22;6870;50.944;6.932;2023-08-12T09:29:23;24.80;35.80
7341;DHT22;6870;50.944;6.932;2023-08-12T09:31:51;25.00;35.90
7341;DHT22;6870;50.944;6.932;2023-08-12T09:34:19;25.10;36.00
7341;DHT22;6870;50.944;6.932;2023-08-12T09:36:47;24.90;35.80
7341;DHT22;6870;50.944;6.932;2023-08-12T09:39:16;25.40;36.00
7341;DHT22;6870;50.944;6.932;2023-08-12T09:41:46;25.20;36.00
7341;DHT22;6870;50.944;6.932;2023-08-12T09:44:14;25.10;36.10
7341;DHT22;6870;50.944;6.932;2023-08-12T09:46:43;25.00;35.90
7341;DHT22;6870;50.944;6.932;2023-08-12T09:49:11;25.10;36.00
7341;DHT22;6870;50.944;6.932;2023-08-12T09:51:39;25.30;36.10
7341;DHT22;6870;50.944;6.932;2023-08-12T09:54:09;25.00;35.70
7341;DHT22;6870;50.944;6.932;2023-08-12T09:56:40;25.20;35.80
7341;DHT22;6870;50.944;6.932;2023-08-12T09:59:11;25.20;36.00
7341;DHT22;6870;50.944;6.932;2023-08-12T10:01:40;24.90;35.70
7341;DHT22;6870;50.944;6.932;2023-08-12T10:04:11;25.00;35.90
7341;DHT22;6870;50.944;6.932;2023-08-12T10:06:40;25.10;36.00
7341;DHT22;6870;50.944;6.932;2023-08-12T10:09:10;25.00;36.00
7341;DHT22;6870;50.944;6.932;2023-08-12T10:11:39;24.90;35.80
7341;DHT22;6870;50.944;6.932;2023-08-12T10:14:10;24.80;35.80
7341;DHT22;6870;50.944;6.932;2023-08-12T10:16:38;25.10;36.20
7341;DHT22;6870;50.944;6.932;2023-08-12T10:19:11;24.80;35.80
7341;DHT22;6870;50.944;6.932;2023-08-12T10:21:39;24.90;35.90
7341;DHT22;6870;50.944;6.932;2023-08-12T10:24:09;25.00;35.90
7341;DHT22;6870;50.944;6.932;2023-08-12T10:26:38;24.80;35.80
7341;DHT22;6870;50.944;6.932;2023-08-12T10:29:07;25.00;36.10
7341;DHT22;6870;50.944;6.932;2023-08-12T10:31:38;25.10;36.00
7341;DHT22;6870;50.944;6.932;2023-08-12T10:34:06;25.30;36.00
7341;DHT22;6870;50.944;6.932;2023-08-12T10:36:34;25.00;35.80
7341;DHT22;6870;50.944;6.932;2023-08-12T10:39:14;25.30;36.00
7341;DHT22;6870;50.944;6.932;2023-08-12T10:41:50;25.40;36.20
7341;DHT22;6870;50.944;6.932;2023-08-12T10:44:20;24.80;35.60
7341;DHT22;6870;50.944;6.932;2023-08-12T10:46:52;25.00;35.80
7341;DHT22;6870;50.944;6.932;2023-08-12T10:49:21;24.70;35.60
7341;DHT22;6870;50.944;6.932;2023-08-12T10:51:51;24.90;35.90
7341;DHT22;6870;50.944;6.932;2023-08-12T10:54:23;25.00;35.90
7341;DHT22;6870;50.944;6.932;2023-08-12T10:57:07;25.00;35.90
7341;DHT22;6870;50.944;6.932;2023-08-12T10:59:54;25.00;35.90
7341;DHT22;6870;50.944;6.932;2023-08-12T11:02:26;25.30;36.20
7341;DHT22;6870;50.944;6.932;2023-08-12T11:04:57;24.90;35.80
7341;DHT22;6870;50.944;6.932;2023-08-12T11:07:38;25.10;36.10
7341;DHT22;6870;50.944;6.932;2023-08-12T11:10:11;24.80;36.00
7341;DHT22;6870;50.944;6.932;2023-08-12T11:12:42;25.40;37.10
7341;DHT22;6870;50.944;6.932;2023-08-12T11:15:15;25.30;36.20
7341;DHT22;6870;50.944;6.932;2023-08-12T11:17:46;25.10;36.20
7341;DHT22;6870;50.944;6.932;2023-08-12T11:20:14;25.00;36.00
7341;DHT22;6870;50.944;6.932;2023-08-12T11:22:43;24.80;36.00
7341;DHT22;6870;50.944;6.932;2023-08-12T11:25:13;25.00;36.10
7341;DHT22;6870;50.944;6.932;2023-08-12T11:27:44;25.20;36.10
7341;DHT22;6870;50.944;6.932;2023-08-12T11:30:15;25.30;36.20
7341;DHT22;6870;50.944;6.932;2023-08-12T11:32:47;24.90;35.90
7341;DHT22;6870;50.944;6.932;2023-08-12T11:35:16;24.90;36.40
7341;DHT22;6870;50.944;6.932;2023-08-12T11:37:46;25.00;36.00
7341;DHT22;6870;50.944;6.932;2023-08-12T11:40:16;25.20;36.70
7341;DHT22;6870;50.944;6.932;2023-08-12T11:42:46;25.00;36.10
7341;DHT22;6870;50.944;6.932;2023-08-12T11:45:17;25.10;36.20
7341;DHT22;6870;50.944;6.932;2023-08-12T11:47:47;24.80;35.90
7341;DHT22;6870;50.944;6.932;2023-08-12T11:50:21;24.80;36.00
7341;DHT22;6870;50.944;6.932;2023-08-12T11:52:51;24.80;35.90
7341;DHT22;6870;50.944;6.932;2023-08-12T11:55:20;24.90;36.10
7341;DHT22;6870;50.944;6.932;2023-08-12T11:57:50;25.10;36.40
7341;DHT22;6870;50.944;6.932;2023-08-12T12:00:19;24.70;36.00
7341;DHT22;6870;50.944;6.932;2023-08-12T12:02:51;25.10;36.20
7341;DHT22;6870;50.944;6.932;2023-08-12T12:05:22;24.80;36.00
7341;DHT22;6870;50.944;6.932;2023-08-12T12:07:52;24.80;36.10
7341;DHT22;6870;50.944;6.932;2023-08-12T12:10:25;25.10;36.10
7341;DHT22;6870;50.944;6.932;2023-08-12T12:13:01;25.10;36.10
7341;DHT22;6870;50.944;6.932;2023-08-12T12:15:30;24.80;35.80
7341;DHT22;6870;50.944;6.932;2023-08-12T12:18:00;25.10;36.10
7341;DHT22;6870;50.944;6.932;2023-08-12T12:20:28;25.00;36.00
7341;DHT22;6870;50.944;6.932;2023-08-12T12:22:56;24.90;36.00
7341;DHT22;6870;50.944;6.932;2023-08-12T12:25:24;24.80;35.70
7341;DHT22;6870;50.944;6.932;2023-08-12T12:27:52;25.30;36.30
7341;DHT22;6870;50.944;6.932;2023-08-12T12:30:21;24.80;35.80
7341;DHT22;6870;50.944;6.932;2023-08-12T12:32:49;24.60;35.70
7341;DHT22;6870;50.944;6.932;2023-08-12T12:35:19;25.20;36.20
7341;DHT22;6870;50.944;6.932;2023-08-12T12:37:47;24.90;35.90
7341;DHT22;6870;50.944;6.932;2023-08-12T12:40:15;25.00;36.10
7341;DHT22;6870;50.944;6.932;2023-08-12T12:42:43;24.90;35.90
7341;DHT22;6870;50.944;6.932;2023-08-12T12:45:12;25.10;36.10
7341;DHT22;6870;50.944;6.932;2023-08-12T12:47:40;24.80;36.00
7341;DHT22;6870;50.944;6.932;2023-08-12T12:50:08;25.10;36.10
7341;DHT22;6870;50.944;6.932;2023-08-12T12:52:38;24.70;35.70
7341;DHT22;6870;50.944;6.932;2023-08-12T12:55:08;25.00;36.00
7341;DHT22;6870;50.944;6.932;2023-08-12T12:57:36;24.80;35.80
7341;DHT22;6870;50.944;6.932;2023-08-12T13:00:06;24.80;35.90
7341;DHT22;6870;50.944;6.932;2023-08-12T13:02:38;24.80;35.90
7341;DHT22;6870;50.944;6.932;2023-08-12T13:05:07;25.20;36.00
7341;DHT22;6870;50.944;6.932;2023-08-12T13:07:35;25.20;35.90
7341;DHT22;6870;50.944;6.932;2023-08-12T13:10:06;24.80;35.30
7341;DHT22;6870;50.944;6.932;2023-08-12T13:12:35;25.20;35.60
7341;DHT22;6870;50.944;6.932;2023-08-12T13:15:03;25.30;35.40
7341;DHT22;6870;50.944;6.932;2023-08-12T13:17:31;25.10;35.40
7341;DHT22;6870;50.944;6.932;2023-08-12T13:19:59;25.30;35.50
7341;DHT22;6870;50.944;6.932;2023-08-12T13:22:27;25.40;35.80
7341;DHT22;6870;50.944;6.932;2023-08-12T13:24:55;25.00;35.40
7341;DHT22;6870;50.944;6.932;2023-08-12T13:27:25;25.00;35.40
7341;DHT22;6870;50.944;6.932;2023-08-12T13:29:53;25.20;35.70
7341;DHT22;6870;50.944;6.932;2023-08-12T13:32:21;25.10;35.70
7341;DHT22;6870;50.944;6.932;2023-08-12T13:34:49;25.40;36.30
7341;DHT22;6870;50.944;6.932;2023-08-12T13:37:17;25.20;35.30
7341;DHT22;6870;50.944;6.932;2023-08-12T13:39:45;25.20;35.10
7341;DHT22;6870;50.944;6.932;2023-08-12T13:42:13;25.10;34.90
7341;DHT22;6870;50.944;6.932;2023-08-12T13:44:43;25.70;35.20
7341;DHT22;6870;50.944;6.932;2023-08-12T13:47:11;25.50;35.20
7341;DHT22;6870;50.944;6.932;2023-08-12T13:49:39;25.40;34.80
7341;DHT22;6870;50.944;6.932;2023-08-12T13:52:07;25.50;34.70
7341;DHT22;6870;50.944;6.932;2023-08-12T13:54:35;25.80;34.90
7341;DHT22;6870;50.944;6.932;2023-08-12T13:57:03;25.20;34.20
7341;DHT22;6870;50.944;6.932;2023-08-12T13:59:31;25.40;34.50
7341;DHT22;6870;50.944;6.932;2023-08-12T14:02:01;25.50;34.30
7341;DHT22;6870;50.944;6.932;2023-08-12T14:04:29;25.80;34.60
7341;DHT22;6870;50.944;6.932;2023-08-12T14:06:57;25.70;34.30
7341;DHT22;6870;50.944;6.932;2023-08-12T14:09:25;25.60;34.50
7341;DHT22;6870;50.944;6.932;2023-08-12T14:11:53;25.30;34.60
7341;DHT22;6870;50.944;6.932;2023-08-12T14:14:21;25.50;34.40
7341;DHT22;6870;50.944;6.932;2023-08-12T14:16:49;25.70;34.60
7341;DHT22;6870;50.944;6.932;2023-08-12T14:19:18;25.80;34.50
7341;DHT22;6870;50.944;6.932;2023-08-12T14:21:46;25.70;34.30
7341;DHT22;6870;50.944;6.932;2023-08-12T14:24:14;25.50;34.10
7341;DHT22;6870;50.944;6.932;2023-08-12T14:26:42;25.80;34.40
7341;DHT22;6870;50.944;6.932;2023-08-12T14:29:10;25.80;34.60
7341;DHT22;6870;50.944;6.932;2023-08-12T14:31:38;25.70;34.70
7341;DHT22;6870;50.944;6.932;2023-08-12T14:34:07;25.50;34.40
7341;DHT22;6870;50.944;6.932;2023-08-12T14:36:36;25.50;34.60
7341;DHT22;6870;50.944;6.932;2023-08-12T14:39:05;25.40;34.70
7341;DHT22;6870;50.944;6.932;2023-08-12T14:41:33;25.50;34.70
7341;DHT22;6870;50.944;6.932;2023-08-12T14:44:01;25.60;34.50
7341;DHT22;6870;50.944;6.932;2023-08-12T14:46:30;25.50;34.50
7341;DHT22;6870;50.944;6.932;2023-08-12T14:48:58;25.20;34.20
7341;DHT22;6870;50.944;6.932;2023-08-12T14:51:26;25.50;34.20
7341;DHT22;6870;50.944;6.932;2023-08-12T14:53:57;25.70;34.40
7341;DHT22;6870;50.944;6.932;2023-08-12T14:56:25;25.60;34.60
7341;DHT22;6870;50.944;6.932;2023-08-12T14:58:53;25.40;34.30
7341;DHT22;6870;50.944;6.932;2023-08-12T15:01:21;25.80;34.70
7341;DHT22;6870;50.944;6.932;2023-08-12T15:03:51;25.40;34.50
7341;DHT22;6870;50.944;6.932;2023-08-12T15:06:21;25.70;34.90
7341;DHT22;6870;50.944;6.932;2023-08-12T15:08:49;25.60;34.70
7341;DHT22;6870;50.944;6.932;2023-08-12T15:11:19;25.20;34.40
7341;DHT22;6870;50.944;6.932;2023-08-12T15:13:47;25.30;34.40
7341;DHT22;6870;50.944;6.932;2023-08-12T15:16:15;25.20;34.20
7341;DHT22;6870;50.944;6.932;2023-08-12T15:18:43;25.40;34.40
7341;DHT22;6870;50.944;6.932;2023-08-12T15:21:11;25.20;34.40
7341;DHT22;6870;50.944;6.932;2023-08-12T15:23:39;25.40;34.50
7341;DHT22;6870;50.944;6.932;2023-08-12T15:26:07;25.30;34.50
7341;DHT22;6870;50.944;6.932;2023-08-12T15:28:36;25.70;34.60
7341;DHT22;6870;50.944;6.932;2023-08-12T15:31:04;25.70;34.60
7341;DHT22;6870;50.944;6.932;2023-08-12T15:33:32;25.40;34.50
7341;DHT22;6870;50.944;6.932;2023-08-12T15:36:01;25.10;34.40
7341;DHT22;6870;50.944;6.932;2023-08-12T15:38:29;25.80;34.80
7341;DHT22;6870;50.944;6.932;2023-08-12T15:40:57;25.80;35.10
7341;DHT22;6870;50.944;6.932;2023-08-12T15:43:26;25.70;35.00
7341;DHT22;6870;50.944;6.932;2023-08-12T15:45:55;25.10;34.60
7341;DHT22;6870;50.944;6.932;2023-08-12T15:48:23;25.10;34.60
7341;DHT22;6870;50.944;6.932;2023-08-12T15:50:51;25.70;35.10
7341;DHT22;6870;50.944;6.932;2023-08-12T15:53:20;25.70;35.20
7341;DHT22;6870;50.944;6.932;2023-08-12T15:55:48;25.70;35.30
7341;DHT22;6870;50.944;6.932;2023-08-12T15:58:16;25.60;35.20
7341;DHT22;6870;50.944;6.932;2023-08-12T16:00:45;25.40;35.10
7341;DHT22;6870;50.944;6.932;2023-08-12T16:03:16;25.10;34.80
7341;DHT22;6870;50.944;6.932;2023-08-12T16:05:45;25.10;34.90
7341;DHT22;6870;50.944;6.932;2023-08-12T16:08:13;25.10;35.10
7341;DHT22;6870;50.944;6.932;2023-08-12T16:10:41;25.40;35.10
7341;DHT22;6870;50.944;6.932;2023-08-12T16:13:09;25.60;35.40